Latest Coastal Weather Observations for Gove Airport

IDD60701

Issued at 5:51 am CST Friday 26 August 2016 (issued every 10 minutes, with the page automatically refreshed every 10 minutes)

About coastal observations | Map of coastal stations | Coastal observations for NT | Marine services | Other Formats
Station Details ID: 014508 Name: GOVE AIRPORT Lat: -12.27 Lon: 136.82 Height: 51.6 m
Data from the previous 72 hours. | See also: Recent months at Gove Airport
Date/Time
CST
Temp
°C
Wind Pressure Rain since
9am
mm
Weather Cloud Vis
km
Sea
Height
m
Swell
Dir  Spd
kts
Gust
kts
hPa Trend Height
m
Period
s
Dir
26/05:30am 24.3 SE 8 13 1013.4 - 0.0 - Partly cloudy 10 - - - -
26/05:00am 24.1 SE 8 11 1013.1 - 0.0 - Cloudy 10 - - - -
26/04:30am 23.8 SE 7 10 1012.9 - 0.0 - Partly cloudy 10 - - - -
26/04:00am 23.5 SE 7 9 1012.7 - 0.0 - - 10 - - - -
26/03:30am 23.6 SE 7 8 1012.7 - 0.0 - Partly cloudy 10 - - - -
26/03:00am 23.7 ESE 7 11 1012.7 R 0.0 - - 10 - - - -
26/02:30am 23.8 ESE 8 10 1012.7 - 0.0 - Partly cloudy 10 - - - -
26/02:00am 23.9 SE 8 11 1012.8 - 0.0 - - 10 - - - -
26/01:30am 24.2 SE 11 15 1013.1 - 0.0 - - 10 - - - -
26/01:00am 24.2 SE 10 14 1013.1 - 0.0 - Partly cloudy 10 - - - -
26/12:30am 24.6 SE 10 15 1013.3 - 0.0 - Partly cloudy 10 - - - -
26/12:00am 24.5 SE 10 15 1013.4 R 0.0 - Mostly cloudy 10 - - - -
 
Date/Time
CST
Temp
°C
Wind Pressure Rain since
9am
mm
Weather Cloud Vis
km
Sea
Height
m
Swell
Dir  Spd
kts
Gust
kts
hPa Trend Height
m
Period
s
Dir
25/11:30pm 24.7 SE 12 17 1013.5 - 0.0 - Partly cloudy 10 - - - -
25/11:00pm 24.9 SE 11 15 1013.5 - 0.0 - Partly cloudy 10 - - - -
25/10:30pm 25.0 SE 11 15 1013.3 - 0.0 - Partly cloudy 10 - - - -
25/10:00pm 25.1 SE 11 14 1013.3 - 0.0 - Cloudy 10 - - - -
25/09:30pm 25.0 SE 11 15 1012.9 - 0.0 - Partly cloudy 10 - - - -
25/09:00pm 25.1 SE 11 16 1012.6 R 0.0 - Cloudy 10 - - - -
25/08:30pm 25.2 SE 9 15 1012.2 - 0.0 - Partly cloudy 10 - - - -
25/08:29pm 25.2 SE 10 15 1012.1 - 0.0 - Partly cloudy 10 - - - -
25/08:00pm 25.2 SE 9 14 1011.8 - 0.0 - Partly cloudy 10 - - - -
25/07:55pm 25.1 SE 10 14 1011.7 - 0.0 - Partly cloudy 10 - - - -
25/07:30pm 25.4 SE 9 13 1011.4 - 0.0 - Partly cloudy 10 - - - -
25/07:00pm 25.4 SE 10 14 1011.0 - 0.0 - Partly cloudy 10 - - - -
25/06:52pm 25.5 SE 10 16 1010.9 - 0.0 - Partly cloudy 10 - - - -
25/06:30pm 25.8 SE 10 14 1010.9 - 0.0 - Partly cloudy 10 - - - -
25/06:19pm 26.0 ESE 11 16 1010.9 - 0.0 - Partly cloudy 10 - - - -
25/06:00pm 26.4 SE 9 11 1010.7 R 0.0 - Mostly cloudy 10 - - - -
25/05:30pm 26.6 SSE 9 14 1010.3 - 0.0 - Partly cloudy 10 - - - -
25/05:00pm 26.9 SSE 10 14 1010.1 - 0.0 - Partly cloudy 10 - - - -
25/04:30pm 28.1 SE 12 16 1009.8 - 0.0 - - 10 - - - -
25/04:00pm 28.7 SE 11 17 1009.8 - 0.0 - Partly cloudy 10 - - - -
25/03:30pm 28.9 SE 11 14 1009.7 - 0.0 - Partly cloudy 10 - - - -
25/03:00pm 29.7 ESE 10 16 1009.6 R 0.0 - Mostly clear 10 - - - -
25/02:30pm 29.1 E 11 14 1009.7 - 0.0 - Partly cloudy 10 - - - -
25/02:00pm 28.9 E 7 11 1009.9 - 0.0 - Partly cloudy 10 - - - -
25/01:30pm 29.2 ENE 9 14 1010.2 - 0.0 - Partly cloudy 10 - - - -
25/01:00pm 29.0 E 7 10 1010.5 - 0.0 - Partly cloudy 10 - - - -
25/12:30pm 28.9 NE 8 13 1010.9 - 0.0 - Mostly cloudy 10 - - - -
25/12:00pm 28.6 NE 7 11 1011.3 F 0.0 - Cloudy 10 - - - -
25/11:30am 28.7 ENE 7 16 1011.6 - 0.0 - Mostly cloudy 10 - - - -
25/11:00am 29.6 SE 4 8 1012.1 - 0.0 - Partly cloudy 10 - - - -
25/10:30am 28.8 ESE 3 5 1012.5 - 0.0 - Partly cloudy 10 - - - -
25/10:00am 27.3 NNE 4 6 1012.8 - 0.0 - Partly cloudy 10 - - - -
25/09:30am 27.0 WNW 2 4 1013.1 - 0.0 - Mostly cloudy 10 - - - -
25/09:00am 26.7 NE 5 7 1012.6 R - - Cloudy 10 - - - -
25/08:30am 26.8 N 7 9 1012.3 - - - Mostly clear 10 - - - -
25/08:00am 25.6 N 5 7 1012.0 - - - Mostly clear 10 - - - -
25/07:30am 23.9 NNE 1 3 1011.8 - - - Mostly clear 10 - - - -
25/07:00am 21.8 CALM 0 0 1011.6 - - - Partly cloudy 10 - - - -
25/06:30am 21.0 CALM 0 0 1011.4 - - - Partly cloudy 10 - - - -
25/06:03am 21.2 CALM 0 0 1010.9 - - - Partly cloudy 10 - - - -
25/06:00am 21.2 CALM 0 0 1010.9 R - - Mostly cloudy 10 - - - -
25/05:46am 21.3 S 3 4 1010.9 - - - Partly cloudy 6 - - - -
25/05:30am 21.4 CALM 0 0 1010.6 - - - Partly cloudy 10 - - - -
25/05:00am 21.4 CALM 0 0 1010.4 - - - - 10 - - - -
25/04:30am 22.1 CALM 0 0 1010.3 - - - - 10 - - - -
25/04:00am 22.2 CALM 0 0 1010.1 - - - - 10 - - - -
25/03:30am 22.0 WNW 2 3 1010.2 - - - - 10 - - - -
25/03:00am 22.1 SSW 5 6 1010.3 R 0.0 - - 10 - - - -
25/02:30am 22.2 WNW 1 4 1009.9 - - - - 10 - - - -
25/02:00am 22.6 CALM 0 0 1010.0 - - - - 10 - - - -
25/01:30am 23.9 N 4 5 1010.1 - - - - 10 - - - -
25/01:00am 24.2 N 5 7 1010.3 - - - - 10 - - - -
25/12:30am 24.0 NNE 5 6 1010.7 - - - Partly cloudy 10 - - - -
25/12:26am 24.0 NNE 5 6 1010.7 - - - Partly cloudy 10 - - - -
25/12:00am 24.2 NNE 4 4 1011.2 R - - Partly cloudy 10 - - - -
 
Date/Time
CST
Temp
°C
Wind Pressure Rain since
9am
mm
Weather Cloud Vis
km
Sea
Height
m
Swell
Dir  Spd
kts
Gust
kts
hPa Trend Height
m
Period
s
Dir
24/11:47pm 24.3 NNE 4 5 1011.2 - - - Partly cloudy 10 - - - -
24/11:30pm 24.2 NNE 3 4 1011.3 - - - Partly cloudy 10 - - - -
24/11:00pm 24.6 NNE 3 5 1011.2 - - - - 10 - - - -
24/10:30pm 24.7 NNE 5 6 1011.0 - - - - 10 - - - -
24/10:00pm 24.8 NNE 5 5 1010.8 - - - - 10 - - - -
24/09:30pm 25.0 NNE 5 6 1010.7 - - - - 10 - - - -
24/09:00pm 25.1 N 5 7 1010.4 R - - - 10 - - - -
24/08:30pm 25.2 N 6 7 1010.1 - - - - 10 - - - -
24/08:00pm 25.3 N 5 7 1009.8 - - - - 10 - - - -
24/07:30pm 25.4 N 6 7 1009.6 - - - Partly cloudy 10 - - - -
24/07:00pm 25.7 NNE 5 7 1009.3 - - - Partly cloudy 10 - - - -
24/06:30pm 26.0 N 5 7 1008.9 - - - Cloudy 10 - - - -
24/06:00pm 26.5 N 7 9 1008.5 - - - Mostly cloudy 10 - - - -
24/05:30pm 27.4 N 8 11 1008.5 - - - Cloudy 10 - - - -
24/05:00pm 27.7 N 9 13 1008.3 - - - Cloudy 10 - - - -
24/04:30pm 28.1 N 9 12 1008.1 - - - Cloudy 10 - - - -
24/02:02pm 30.6 N 12 17 1008.9 - 0.0 - Mostly clear 10 - - - -
24/02:00pm 30.3 N 12 17 1008.9 - 0.0 - - 10 - - - -
24/01:30pm 29.7 N 14 19 1009.1 - 0.0 - Partly cloudy 10 - - - -
24/01:00pm 30.1 N 13 16 1009.4 - 0.0 - Partly cloudy 10 - - - -
24/12:30pm 30.7 NNW 9 15 1009.9 - 0.0 - Mostly clear 10 - - - -
24/12:00pm 30.3 NW 8 13 1010.4 F 0.0 - Partly cloudy 10 - - - -
24/11:30am 29.7 NW 7 15 1010.9 - 0.0 - Mostly clear 10 - - - -
24/11:00am 29.1 WNW 9 13 1011.4 - 0.0 - Mostly clear 10 - - - -
24/10:30am 28.9 WNW 7 11 1011.8 - 0.0 - Mostly clear 10 - - - -
24/10:00am 28.6 WNW 9 13 1012.1 - 0.0 - Mostly clear 10 - - - -
24/09:30am 27.6 W 9 13 1012.6 - 0.0 - Mostly clear 10 - - - -
24/09:00am 26.8 W 6 9 1012.6 R 0.0 - Partly cloudy 10 - - - -
24/08:30am 24.8 WSW 4 6 1012.6 - 0.0 - Partly cloudy 10 - - - -
24/08:00am 24.8 W 5 7 1012.2 - 0.0 - Mostly clear 10 - - - -
24/07:30am 24.8 W 4 6 1011.8 - 0.0 - Mostly clear 10 - - - -
24/07:00am 23.2 WNW 4 5 1011.4 - 0.0 - Partly cloudy 10 - - - -
24/06:30am 22.7 NW 5 5 1010.9 - 0.0 - - 10 - - - -
24/06:00am 22.7 NNW 4 5 1010.4 R 0.0 - - 10 - - - -
24/05:30am 22.8 NW 5 6 1010.1 - 0.0 - - 10 - - - -
24/05:00am 23.1 WNW 5 6 1009.9 - 0.0 - Partly cloudy 10 - - - -
24/04:30am 23.5 NNW 6 7 1009.5 - 0.0 - - 10 - - - -
24/04:00am 23.6 NNW 6 8 1009.2 - 0.0 - - 10 - - - -
24/03:30am 23.5 N 5 7 1009.1 - 0.0 - - 10 - - - -
24/03:00am 23.5 NNW 5 6 1009.1 R 0.0 - - 10 - - - -
24/02:30am 23.6 N 5 6 1009.2 - 0.0 - - 10 - - - -
24/02:00am 23.7 N 5 6 1009.4 - 0.0 - - 10 - - - -
24/01:30am 23.6 N 5 7 1009.5 - 0.0 - - 10 - - - -
24/01:00am 23.4 N 4 5 1009.7 - 0.0 - - 10 - - - -
24/12:30am 23.0 N 4 4 1009.8 - 0.0 - - 10 - - - -
24/12:00am 23.8 N 4 5 1009.9 F 0.0 - - 10 - - - -
 
Date/Time
CST
Temp
°C
Wind Pressure Rain since
9am
mm
Weather Cloud Vis
km
Sea
Height
m
Swell
Dir  Spd
kts
Gust
kts
hPa Trend Height
m
Period
s
Dir
23/11:30pm 23.9 N 4 6 1010.0 - 0.0 - - 10 - - - -
23/11:00pm 23.9 N 4 5 1010.1 - 0.0 - - 10 - - - -
23/10:30pm 24.0 N 4 5 1010.1 - 0.0 - - 10 - - - -
23/10:00pm 24.2 N 4 5 1010.1 - 0.0 - - 10 - - - -
23/09:30pm 23.8 N 3 4 1010.2 - 0.0 - - 10 - - - -
23/09:00pm 24.5 N 4 5 1010.0 R 0.0 - - 10 - - - -
23/08:30pm 24.7 N 5 6 1009.8 - 0.0 - - 10 - - - -
23/08:00pm 24.9 N 5 6 1009.6 - 0.0 - - 10 - - - -
23/07:30pm 25.1 N 5 6 1009.2 - 0.0 - - 10 - - - -
23/07:00pm 25.5 N 5 7 1008.9 - 0.0 - - 10 - - - -
23/06:30pm 25.9 N 7 9 1008.5 - 0.0 - - 10 - - - -
23/06:00pm 26.4 N 9 11 1008.2 R 0.0 - - 10 - - - -
23/05:30pm 27.5 N 9 13 1007.9 - 0.0 - - 10 - - - -
23/05:00pm 27.6 N 11 14 1007.8 - 0.0 - - 10 - - - -
23/04:30pm 27.9 NNW 11 15 1007.6 - 0.0 - Mostly clear 10 - - - -
23/04:00pm 28.4 N 11 15 1007.5 - 0.0 - Mostly clear 10 - - - -
23/03:30pm 28.6 NNW 12 18 1007.4 - 0.0 - Mostly clear 10 - - - -
23/03:00pm 28.9 N 11 16 1007.5 F 0.0 - Mostly clear 10 - - - -
23/02:30pm 29.5 N 12 16 1007.9 - 0.0 - Partly cloudy 10 - - - -
23/02:00pm 29.2 N 11 16 1008.3 - 0.0 - Partly cloudy 10 - - - -
23/01:30pm 29.0 N 11 15 1008.7 - 0.0 - Partly cloudy 10 - - - -
23/01:00pm 29.1 N 12 15 1009.1 - 0.0 - Mostly clear 10 - - - -
23/12:30pm 28.3 N 11 16 1009.5 - 0.0 - Mostly clear 10 - - - -
23/12:00pm 28.2 NNE 12 16 1010.1 F 0.0 - Partly cloudy 10 - - - -
23/11:30am 28.7 N 9 13 1010.7 - 0.0 - Partly cloudy 10 - - - -
23/11:00am 28.5 NNE 11 15 1011.0 - 0.0 - Partly cloudy 10 - - - -
23/10:30am 28.2 N 9 13 1011.3 - 0.0 - Partly cloudy 10 - - - -
23/10:00am 27.1 NNW 7 11 1011.5 - 0.0 - Partly cloudy 10 - - - -
23/09:30am 27.9 N 9 12 1011.5 - 0.0 - Partly cloudy 10 - - - -
23/09:00am 26.9 N 9 12 1011.3 F 0.0 - Partly cloudy 10 - - - -
23/08:30am 26.9 NNE 11 13 1011.2 - 0.0 - Partly cloudy 10 - - - -
23/08:00am 26.0 N 8 11 1011.0 - 0.0 - Partly cloudy 10 - - - -
23/07:30am 24.7 N 5 7 1010.8 - 0.0 - Mostly clear 10 - - - -
23/07:18am 23.4 NNE 3 4 1010.7 - 0.0 - Partly cloudy 10 - - - -
23/07:15am 22.4 NNE 3 4 1010.6 - 0.0 - Partly cloudy 10 - - - -
23/07:01am 21.6 NNE 2 3 1010.5 - 0.0 - Partly cloudy 10 - - - -
23/07:00am 21.6 NNE 2 3 1010.5 - 0.0 - Partly cloudy 10 - - - -
23/06:46am 21.4 CALM 0 0 1010.5 - 0.0 - Partly cloudy 10 - - - -
23/06:30am 21.3 N 2 3 1010.3 - 0.0 - Partly cloudy 10 - - - -
23/06:09am 22.0 N 3 4 1010.2 - 0.0 - Partly cloudy 10 - - - -
23/06:00am 22.8 N 4 5 1010.0 R 0.0 - Mostly clear 10 - - - -

Other Formats:

Comma delimited format used in spreadsheet applications
http://www.bom.gov.au/fwo/IDD60701/IDD60701.94150.axf

JavaScript Object Notation format (JSON) in row-major order
http://www.bom.gov.au/fwo/IDD60701/IDD60701.94150.json